createdAt,value
2022-09-24T00:03:31.148Z,30.15
2022-09-24T00:08:33.646Z,27.40
2022-09-24T00:13:36.174Z,28.92
2022-09-24T00:18:39.929Z,70.20
2022-09-24T00:28:50.520Z,52.83
2022-09-24T00:33:54.453Z,40.22
2022-09-24T00:44:01.077Z,107.73
2022-09-24T00:49:14.417Z,83.97
2022-09-24T00:54:20.430Z,62.90
2022-09-24T00:59:24.033Z,70.28
2022-09-24T01:09:31.230Z,55.55
2022-09-24T01:15:02.060Z,41.40
2022-09-24T01:20:32.503Z,34.30
2022-09-24T01:26:33.633Z,25.52
2022-09-24T01:31:46.970Z,25.77
2022-09-24T01:36:50.223Z,21.88
2022-09-24T01:41:53.908Z,24.75
2022-09-24T01:46:57.263Z,19.83
2022-09-24T01:52:01.621Z,16.83
2022-09-24T01:57:14.799Z,17.92
2022-09-24T02:02:23.364Z,15.30
2022-09-24T02:07:40.131Z,14.98
2022-09-24T02:12:44.310Z,16.40
2022-09-24T02:17:49.215Z,13.05
2022-09-24T02:22:51.963Z,16.25
2022-09-24T02:27:54.423Z,14.27
2022-09-24T02:32:57.137Z,15.10
2022-09-24T02:38:02.822Z,13.77
2022-09-24T02:43:08.426Z,19.70
2022-09-24T02:48:11.970Z,16.05
2022-09-24T02:53:14.195Z,17.30
2022-09-24T02:58:16.754Z,15.18
2022-09-24T03:03:19.115Z,15.77
2022-09-24T03:08:22.361Z,17.35
2022-09-24T03:13:25.064Z,13.50
2022-09-24T03:18:27.379Z,17.60
2022-09-24T03:23:30.816Z,17.17
2022-09-24T03:28:33.166Z,17.58
2022-09-24T03:33:41.815Z,17.95
2022-09-24T03:38:45.779Z,20.23
2022-09-24T03:43:48.478Z,18.20
2022-09-24T03:48:52.283Z,18.08
2022-09-24T03:53:54.566Z,24.33
2022-09-24T03:58:57.042Z,22.48
2022-09-24T04:04:01.288Z,21.92
2022-09-24T04:09:03.666Z,21.17
2022-09-24T04:14:06.095Z,19.92
2022-09-24T04:19:08.600Z,21.77
2022-09-24T04:24:11.076Z,19.38
2022-09-24T04:29:13.653Z,18.55
2022-09-24T04:34:15.979Z,20.67
2022-09-24T04:39:18.600Z,18.63
2022-09-24T04:44:21.226Z,20.50
2022-09-24T04:49:24.380Z,21.47
2022-09-24T04:54:29.821Z,22.23
2022-09-24T04:59:32.034Z,20.77
2022-09-24T05:04:36.219Z,21.20
2022-09-24T05:09:41.052Z,20.10
2022-09-24T05:14:43.354Z,20.92
2022-09-24T05:19:45.907Z,24.95
2022-09-24T05:24:48.187Z,19.92
2022-09-24T05:29:50.573Z,24.65
2022-09-24T05:34:54.050Z,19.38
2022-09-24T05:39:57.952Z,22.80
2022-09-24T05:45:00.309Z,21.90
2022-09-24T05:50:02.536Z,22.70
2022-09-24T05:55:05.478Z,21.52
2022-09-24T06:00:07.992Z,19.05
2022-09-24T06:05:16.448Z,19.45
2022-09-24T06:10:20.041Z,18.58
2022-09-24T06:15:22.653Z,21.33
2022-09-24T06:20:25.081Z,19.87
2022-09-24T06:25:29.485Z,19.52
2022-09-24T06:30:38.543Z,17.60
2022-09-24T06:35:43.906Z,15.70
2022-09-24T06:40:48.636Z,15.73
2022-09-24T06:45:51.194Z,16.65
2022-09-24T06:50:54.884Z,16.02
2022-09-24T06:55:59.843Z,17.35
2022-09-24T07:01:04.222Z,16.17
2022-09-24T07:06:12.192Z,15.40
2022-09-24T07:11:16.067Z,17.98
2022-09-24T07:16:18.593Z,16.63
2022-09-24T07:21:21.200Z,20.27
2022-09-24T07:26:23.554Z,15.25
2022-09-24T07:31:27.163Z,16.77
2022-09-24T07:36:31.487Z,17.13
2022-09-24T07:41:37.433Z,17.48
2022-09-24T07:46:47.452Z,16.42
2022-09-24T07:51:49.790Z,13.38
2022-09-24T07:56:52.198Z,15.83
2022-09-24T08:01:54.840Z,13.67
2022-09-24T08:06:58.642Z,13.27
2022-09-24T08:12:01.530Z,16.27
2022-09-24T08:17:04.188Z,12.88
2022-09-24T08:22:07.485Z,11.73
2022-09-24T08:27:12.668Z,13.32
2022-09-24T08:32:18.952Z,11.32
2022-09-24T08:37:21.264Z,12.23
2022-09-24T08:42:37.299Z,12.57
2022-09-24T08:48:01.858Z,10.13
2022-09-24T08:53:26.509Z,9.57
2022-09-24T08:58:45.158Z,12.75
2022-09-24T09:04:12.264Z,13.70
2022-09-24T09:09:23.585Z,15.27
2022-09-24T09:14:46.303Z,10.57
2022-09-24T09:19:56.883Z,10.10
2022-09-24T09:25:04.709Z,9.45
2022-09-24T09:30:14.408Z,7.38
2022-09-24T09:35:27.795Z,10.93
2022-09-24T09:40:35.644Z,7.60
2022-09-24T09:45:48.811Z,8.90
2022-09-24T09:50:52.496Z,6.18
2022-09-24T09:55:58.029Z,6.93
2022-09-24T10:01:16.125Z,11.57
2022-09-24T10:06:32.380Z,5.35
2022-09-24T10:11:35.982Z,7.50
2022-09-24T10:21:41.961Z,4.78
2022-09-24T10:26:46.064Z,3.45
2022-09-24T10:31:49.989Z,6.32
2022-09-24T10:37:00.801Z,3.70
2022-09-24T10:42:03.285Z,4.65
2022-09-24T10:47:34.647Z,4.78
2022-09-24T10:52:54.435Z,6.45
2022-09-24T10:58:14.187Z,5.57
2022-09-24T11:03:19.710Z,4.80
2022-09-24T11:08:34.154Z,5.38
2022-09-24T11:13:41.262Z,6.28
2022-09-24T11:18:54.266Z,7.65
2022-09-24T11:24:18.474Z,7.72
2022-09-24T11:29:36.227Z,6.22
2022-09-24T11:34:54.490Z,22.30
2022-09-24T11:40:16.702Z,6.82
2022-09-24T11:45:28.394Z,4.60
2022-09-24T11:50:53.279Z,5.97
2022-09-24T11:55:59.868Z,5.45
2022-09-24T12:01:07.143Z,5.43
2022-09-24T12:06:13.087Z,5.60
2022-09-24T12:11:24.637Z,4.32
2022-09-24T12:16:29.679Z,5.97
2022-09-24T12:21:40.754Z,5.55
2022-09-24T12:26:43.860Z,7.85
2022-09-24T12:37:16.668Z,6.72
2022-09-24T12:42:20.492Z,8.77
2022-09-24T12:47:33.844Z,12.82
2022-09-24T12:52:41.697Z,7.32
2022-09-24T12:58:03.722Z,15.23
2022-09-24T13:03:07.128Z,10.80
2022-09-24T13:08:17.063Z,6.28
2022-09-24T13:13:26.155Z,8.65
2022-09-24T13:18:29.148Z,5.50
2022-09-24T13:23:37.977Z,5.57
2022-09-24T13:28:51.465Z,6.65
2022-09-24T13:34:25.233Z,4.80
2022-09-24T13:39:34.029Z,11.48
2022-09-24T13:44:56.100Z,10.98
2022-09-24T13:50:08.137Z,8.98
2022-09-24T13:55:22.307Z,12.73
2022-09-24T14:00:27.879Z,11.20
2022-09-24T14:05:37.136Z,6.03
2022-09-24T14:10:42.905Z,5.90
2022-09-24T14:16:14.980Z,38.33
2022-09-24T14:21:27.925Z,7.93
2022-09-24T14:26:39.382Z,13.65
2022-09-24T14:31:47.511Z,15.88
2022-09-24T14:36:52.495Z,12.43
2022-09-24T14:41:56.956Z,6.97
2022-09-24T14:46:59.687Z,5.63
2022-09-24T14:52:03.979Z,3.28
2022-09-24T14:57:19.517Z,5.35
2022-09-24T15:02:28.186Z,5.28
2022-09-24T15:07:31.237Z,5.25
2022-09-24T15:12:39.066Z,3.80
2022-09-24T15:17:41.407Z,7.15
2022-09-24T15:22:43.842Z,5.13
2022-09-24T15:27:46.371Z,9.17
2022-09-24T15:32:50.220Z,5.87
2022-09-24T15:37:52.975Z,5.47
2022-09-24T15:42:55.222Z,6.85
2022-09-24T15:47:57.568Z,6.10
2022-09-24T15:53:01.193Z,5.50
2022-09-24T15:58:10.074Z,13.18
2022-09-24T16:03:25.623Z,271.40
2022-09-24T16:08:29.339Z,175.13
2022-09-24T16:13:32.421Z,344.70
2022-09-24T16:18:35.685Z,422.30
2022-09-24T16:28:40.420Z,124.47
2022-09-24T16:33:43.001Z,150.97
2022-09-24T16:38:45.311Z,168.97
2022-09-24T16:43:47.828Z,292.85
2022-09-24T16:48:50.220Z,211.40
2022-09-24T16:53:56.245Z,130.70
2022-09-24T16:58:58.956Z,87.60
2022-09-24T17:09:23.623Z,46.80
2022-09-24T17:14:25.929Z,45.53
2022-09-24T17:19:28.360Z,32.87
2022-09-24T17:24:31.890Z,25.63
2022-09-24T17:29:34.534Z,26.27
2022-09-24T17:34:36.840Z,25.63
2022-09-24T17:39:39.441Z,26.37
2022-09-24T17:44:41.901Z,31.23
2022-09-24T17:49:44.846Z,38.83
2022-09-24T17:54:48.171Z,36.03
2022-09-24T17:59:50.484Z,29.13
2022-09-24T18:04:53.535Z,25.80
2022-09-24T18:09:57.544Z,22.63
2022-09-24T18:14:59.949Z,22.42
2022-09-24T18:20:02.870Z,24.10
2022-09-24T18:25:07.618Z,26.60
2022-09-24T18:30:11.910Z,26.63
2022-09-24T18:35:14.958Z,32.45
2022-09-24T18:40:21.593Z,73.60
2022-09-24T18:45:25.441Z,143.52
2022-09-24T18:50:28.524Z,109.70
2022-09-24T18:55:31.373Z,94.13
2022-09-24T19:00:54.944Z,80.32
2022-09-24T19:06:03.892Z,52.55
2022-09-24T19:11:10.076Z,46.65
2022-09-24T19:16:18.299Z,47.70
2022-09-24T19:21:22.826Z,42.97
2022-09-24T19:26:29.329Z,43.65
2022-09-24T19:31:36.792Z,35.97
2022-09-24T19:36:44.140Z,37.70
2022-09-24T19:41:47.576Z,35.42
2022-09-24T19:46:50.463Z,47.92
2022-09-24T19:51:52.961Z,60.47
2022-09-24T19:57:04.614Z,77.55
2022-09-24T20:02:12.753Z,69.43
2022-09-24T20:07:48.737Z,53.35
2022-09-24T20:12:52.161Z,45.33
2022-09-24T20:17:55.670Z,35.47
2022-09-24T20:28:03.494Z,34.22
2022-09-24T20:33:07.829Z,55.55
2022-09-24T20:38:10.371Z,86.32
2022-09-24T20:43:12.701Z,88.85
2022-09-24T20:48:15.557Z,97.18
2022-09-24T20:53:18.827Z,91.78
2022-09-24T20:58:21.315Z,95.18
2022-09-24T21:03:42.811Z,95.70
2022-09-24T21:08:47.113Z,89.15
2022-09-24T21:13:52.081Z,83.43
2022-09-24T21:18:55.013Z,73.63
2022-09-24T21:23:59.299Z,66.07
2022-09-24T21:29:13.132Z,64.40
2022-09-24T21:34:17.554Z,63.67
2022-09-24T21:39:23.331Z,70.07
2022-09-24T21:44:26.142Z,64.68
2022-09-24T21:49:28.599Z,66.10
2022-09-24T21:54:32.242Z,57.85
2022-09-24T22:04:56.242Z,50.55
2022-09-24T22:09:58.602Z,52.33
2022-09-24T22:15:03.111Z,49.05
2022-09-24T22:20:06.080Z,43.38
2022-09-24T22:25:08.821Z,41.92
2022-09-24T22:30:12.085Z,41.53
2022-09-24T22:35:33.483Z,42.20
2022-09-24T22:40:36.449Z,41.28
2022-09-24T22:45:39.467Z,41.75
2022-09-24T22:50:45.239Z,41.33
2022-09-24T22:55:51.876Z,37.45
2022-09-24T23:00:55.427Z,35.60
2022-09-24T23:06:00.470Z,31.40
2022-09-24T23:11:13.572Z,28.40
2022-09-24T23:16:18.173Z,32.70
2022-09-24T23:21:21.888Z,29.50
2022-09-24T23:26:28.754Z,28.70
2022-09-24T23:31:35.548Z,33.75
2022-09-24T23:36:37.927Z,31.98
2022-09-24T23:41:40.606Z,29.88
2022-09-24T23:46:43.041Z,28.70
2022-09-24T23:51:45.470Z,30.52
2022-09-24T23:56:48.787Z,32.83
